createdAt,value
2023-01-13T00:02:06.458Z,11.98
2023-01-13T00:04:33.367Z,14.35
2023-01-13T00:07:00.251Z,13.45
2023-01-13T00:09:26.955Z,19.60
2023-01-13T00:11:53.708Z,11.02
2023-01-13T00:14:20.515Z,13.70
2023-01-13T00:16:47.262Z,10.98
2023-01-13T00:19:13.980Z,9.93
2023-01-13T00:21:40.744Z,12.75
2023-01-13T00:24:07.458Z,14.88
2023-01-13T00:26:35.923Z,12.65
2023-01-13T00:29:02.876Z,12.02
2023-01-13T00:31:30.484Z,13.82
2023-01-13T00:33:59.202Z,11.32
2023-01-13T00:36:26.504Z,14.60
2023-01-13T00:38:53.591Z,10.05
2023-01-13T00:41:23.087Z,8.98
2023-01-13T00:43:50.537Z,8.00
2023-01-13T00:46:20.285Z,10.00
2023-01-13T00:48:47.690Z,8.98
2023-01-13T00:51:20.539Z,7.47
2023-01-13T00:53:49.644Z,10.70
2023-01-13T00:56:18.114Z,11.23
2023-01-13T00:58:46.079Z,9.60
2023-01-13T01:01:24.508Z,9.10
2023-01-13T01:03:53.643Z,10.57
2023-01-13T01:06:23.328Z,8.90
2023-01-13T01:08:51.246Z,10.80
2023-01-13T01:11:21.300Z,10.32
2023-01-13T01:13:48.763Z,9.75
2023-01-13T01:16:18.059Z,9.45
2023-01-13T01:18:47.118Z,8.60
2023-01-13T01:21:14.323Z,9.15
2023-01-13T01:23:41.426Z,7.80
2023-01-13T01:26:18.325Z,12.18
2023-01-13T01:28:45.399Z,14.07
2023-01-13T01:31:18.278Z,9.40
2023-01-13T01:33:46.650Z,7.88
2023-01-13T01:36:15.386Z,11.90
2023-01-13T01:38:42.349Z,8.93
2023-01-13T01:41:15.178Z,15.43
2023-01-13T01:43:59.269Z,9.48
2023-01-13T01:46:27.478Z,7.53
2023-01-13T01:48:58.835Z,7.43
2023-01-13T01:51:25.805Z,9.82
2023-01-13T01:53:55.388Z,8.43
2023-01-13T01:56:22.334Z,6.68
2023-01-13T01:58:51.980Z,10.13
2023-01-13T02:01:18.920Z,11.27
2023-01-13T02:03:58.489Z,7.07
2023-01-13T02:06:25.449Z,11.20
2023-01-13T02:08:53.052Z,11.75
2023-01-13T02:11:52.877Z,10.85
2023-01-13T02:14:23.822Z,8.98
2023-01-13T02:17:09.506Z,9.63
2023-01-13T02:20:17.543Z,10.27
2023-01-13T02:23:08.901Z,8.23
2023-01-13T02:25:59.752Z,8.18
2023-01-13T02:29:14.702Z,9.75
2023-01-13T02:31:45.087Z,7.57
2023-01-13T02:34:11.788Z,6.72
2023-01-13T02:36:49.766Z,9.13
2023-01-13T02:39:29.898Z,9.18
2023-01-13T02:42:25.337Z,8.75
2023-01-13T02:44:59.480Z,9.40
2023-01-13T02:47:28.542Z,10.35
2023-01-13T02:50:00.675Z,9.15
2023-01-13T02:52:38.912Z,8.30
2023-01-13T02:55:19.808Z,11.05
2023-01-13T02:57:48.585Z,8.40
2023-01-13T03:00:17.055Z,9.57
2023-01-13T03:02:44.028Z,9.07
2023-01-13T03:05:15.747Z,11.57
2023-01-13T03:07:55.737Z,11.43
2023-01-13T03:10:49.823Z,9.52
2023-01-13T03:13:16.689Z,9.07
2023-01-13T03:16:01.725Z,6.90
2023-01-13T03:18:56.015Z,8.05
2023-01-13T03:21:37.749Z,8.13
2023-01-13T03:24:17.116Z,7.00
2023-01-13T03:26:59.253Z,6.88
2023-01-13T03:29:32.277Z,8.15
2023-01-13T03:32:02.387Z,7.63
2023-01-13T03:34:35.875Z,9.27
2023-01-13T03:37:05.557Z,7.15
2023-01-13T03:39:36.716Z,7.97
2023-01-13T03:42:15.177Z,9.40
2023-01-13T03:44:51.588Z,11.32
2023-01-13T03:47:41.473Z,16.55
2023-01-13T03:50:14.380Z,10.10
2023-01-13T03:52:47.714Z,14.65
2023-01-13T03:55:22.744Z,11.13
2023-01-13T03:58:01.305Z,10.68
2023-01-13T04:00:36.437Z,9.55
2023-01-13T04:03:13.563Z,9.70
2023-01-13T04:05:45.965Z,11.75
2023-01-13T04:08:21.335Z,12.93
2023-01-13T04:11:26.705Z,9.13
2023-01-13T04:13:55.342Z,8.35
2023-01-13T04:16:22.332Z,8.65
2023-01-13T04:18:50.257Z,9.48
2023-01-13T04:21:17.058Z,12.93
2023-01-13T04:23:43.848Z,6.93
2023-01-13T04:26:10.764Z,7.25
2023-01-13T04:28:37.573Z,7.72
2023-01-13T04:31:04.356Z,9.55
2023-01-13T04:33:31.151Z,7.72
2023-01-13T04:35:57.896Z,6.07
2023-01-13T04:38:24.660Z,5.82
2023-01-13T04:40:51.400Z,11.27
2023-01-13T04:43:18.253Z,8.20
2023-01-13T04:45:45.303Z,7.60
2023-01-13T04:48:12.975Z,7.05
2023-01-13T04:50:40.315Z,5.95
2023-01-13T04:53:07.390Z,5.85
2023-01-13T04:55:35.344Z,7.05
2023-01-13T04:58:04.663Z,6.32
2023-01-13T05:00:32.081Z,6.45
2023-01-13T05:02:59.558Z,8.00
2023-01-13T05:05:27.579Z,9.18
2023-01-13T05:07:54.436Z,6.75
2023-01-13T05:10:23.888Z,10.38
2023-01-13T05:13:10.155Z,14.05
2023-01-13T05:15:55.447Z,15.75
2023-01-13T05:18:22.386Z,13.52
2023-01-13T05:20:50.079Z,17.25
2023-01-13T05:23:35.279Z,11.82
2023-01-13T05:26:02.461Z,11.80
2023-01-13T20:55:16.414Z,30.70
2023-01-13T20:57:54.800Z,28.92
2023-01-13T21:00:23.108Z,35.85
2023-01-13T21:02:51.120Z,24.15
2023-01-13T21:05:18.307Z,27.63
2023-01-13T21:07:45.444Z,21.45
2023-01-13T21:10:13.062Z,26.88
2023-01-13T21:12:59.077Z,37.15
2023-01-13T21:15:27.943Z,31.17
2023-01-13T21:18:13.794Z,35.00
2023-01-13T21:20:42.198Z,29.17
2023-01-13T21:23:13.138Z,38.20
2023-01-13T21:25:42.015Z,23.17
2023-01-13T21:28:15.285Z,35.88
2023-01-13T21:30:45.895Z,36.38
2023-01-13T21:33:16.655Z,38.60
2023-01-13T21:35:47.165Z,32.60
2023-01-13T21:38:14.345Z,26.83
2023-01-13T21:41:08.632Z,23.60
2023-01-13T21:43:56.152Z,26.08
2023-01-13T21:46:43.063Z,18.67
2023-01-13T21:49:10.224Z,30.17
2023-01-13T21:51:37.721Z,26.65
2023-01-13T21:54:07.478Z,19.52
2023-01-13T21:56:35.783Z,25.38
2023-01-13T21:59:05.575Z,30.55
2023-01-13T22:01:36.350Z,23.15
2023-01-13T22:06:49.471Z,28.35
2023-01-13T22:09:17.124Z,24.77
2023-01-13T22:11:44.055Z,26.13
2023-01-13T22:14:11.205Z,27.27
2023-01-13T22:16:41.920Z,29.13
2023-01-13T22:19:10.582Z,27.77
2023-01-13T22:21:38.179Z,24.83
2023-01-13T22:24:05.437Z,28.60
2023-01-13T22:26:32.415Z,34.28
2023-01-13T22:28:59.314Z,23.67
2023-01-13T22:31:26.199Z,24.23
2023-01-13T22:33:55.250Z,24.17
2023-01-13T22:36:26.549Z,31.10
2023-01-13T22:38:56.865Z,27.63
2023-01-13T22:41:23.845Z,21.15
2023-01-13T22:43:59.869Z,20.48
2023-01-13T22:46:26.960Z,17.00
2023-01-13T22:48:56.055Z,21.83
2023-01-13T22:51:23.283Z,18.27
2023-01-13T22:53:50.328Z,18.13
2023-01-13T22:56:22.778Z,18.70
2023-01-13T22:59:00.211Z,18.42
2023-01-13T23:01:29.647Z,19.65
2023-01-13T23:03:59.960Z,15.18
2023-01-13T23:06:29.008Z,12.43
2023-01-13T23:08:56.680Z,12.60
2023-01-13T23:11:26.705Z,14.88
2023-01-13T23:13:59.363Z,15.55
2023-01-13T23:16:28.050Z,14.05
2023-01-13T23:18:55.219Z,17.13
2023-01-13T23:21:26.174Z,18.35
2023-01-13T23:23:54.206Z,20.20
2023-01-13T23:26:22.036Z,17.02
2023-01-13T23:28:49.240Z,10.65
2023-01-13T23:31:21.156Z,9.25
2023-01-13T23:33:48.959Z,11.07
2023-01-13T23:36:21.776Z,8.75
2023-01-13T23:38:48.803Z,12.30
2023-01-13T23:41:17.844Z,17.38
2023-01-13T23:43:56.722Z,11.48
2023-01-13T23:46:24.478Z,24.15
2023-01-13T23:48:52.049Z,11.50
2023-01-13T23:51:21.418Z,11.98
2023-01-13T23:53:50.140Z,8.32
2023-01-13T23:56:23.666Z,9.70
2023-01-13T23:58:51.305Z,10.25
